createdAt,value
2023-04-29T00:02:19.221Z,91.26
2023-04-29T00:09:53.577Z,91.09
2023-04-29T00:17:29.167Z,92.02
2023-04-29T00:25:04.450Z,91.69
2023-04-29T00:32:40.284Z,91.71
2023-04-29T00:40:15.447Z,94.41
2023-04-29T00:47:53.145Z,94.16
2023-04-29T00:55:27.672Z,95.14
2023-04-29T01:03:04.572Z,100.00
2023-04-29T01:10:45.673Z,100.00
2023-04-29T01:18:27.304Z,100.00
2023-04-29T01:26:03.163Z,100.00
2023-04-29T01:33:45.919Z,100.00
2023-04-29T01:41:28.848Z,100.00
2023-04-29T01:49:03.372Z,100.00
2023-04-29T01:56:38.903Z,100.00
2023-04-29T02:04:13.297Z,100.00
2023-04-29T02:11:48.634Z,100.00
2023-04-29T02:19:22.579Z,100.00
2023-04-29T02:26:59.314Z,100.00
2023-04-29T02:34:33.307Z,100.00
2023-04-29T02:42:08.769Z,100.00
2023-04-29T02:49:42.716Z,100.00
2023-04-29T02:57:18.618Z,100.00
2023-04-29T03:04:52.619Z,100.00
2023-04-29T03:12:28.270Z,100.00
2023-04-29T03:20:02.307Z,100.00
2023-04-29T03:27:37.736Z,100.00
2023-04-29T03:35:15.604Z,100.00
2023-04-29T03:42:51.457Z,100.00
2023-04-29T03:50:26.195Z,100.00
2023-04-29T03:58:01.574Z,100.00
2023-04-29T04:05:35.618Z,100.00
2023-04-29T04:13:11.068Z,100.00
2023-04-29T04:20:44.995Z,100.00
2023-04-29T04:28:20.345Z,100.00
2023-04-29T04:35:54.245Z,100.00
2023-04-29T04:43:29.653Z,100.00
2023-04-29T04:51:09.431Z,100.00
2023-04-29T04:58:45.268Z,100.00
2023-04-29T05:06:19.781Z,100.00
2023-04-29T05:13:55.692Z,100.00
2023-04-29T05:21:29.694Z,100.00
2023-04-29T05:29:05.535Z,100.00
2023-04-29T05:36:39.390Z,100.00
2023-04-29T05:44:14.943Z,100.00
2023-04-29T05:51:48.847Z,100.00
2023-04-29T05:59:24.419Z,100.00
2023-04-29T06:07:06.302Z,100.00
2023-04-29T06:14:41.913Z,100.00
2023-04-29T06:22:15.894Z,100.00
2023-04-29T06:29:51.639Z,100.00
2023-04-29T06:37:25.798Z,100.00
2023-04-29T06:45:01.442Z,100.00
2023-04-29T06:52:35.531Z,100.00
2023-04-29T07:00:11.889Z,100.00
2023-04-29T07:07:46.073Z,100.00
2023-04-29T07:15:21.722Z,100.00
2023-04-29T07:22:55.831Z,100.00
2023-04-29T07:38:23.046Z,100.00
2023-04-29T07:53:50.847Z,100.00
2023-04-29T08:09:18.054Z,100.00
2023-04-29T08:16:54.712Z,100.00
2023-04-29T08:24:29.726Z,100.00
2023-04-29T08:39:56.765Z,100.00
2023-04-29T08:47:34.074Z,100.00
2023-04-29T08:55:10.020Z,100.00
2023-04-29T09:02:50.293Z,100.00
2023-04-29T09:10:24.946Z,100.00
2023-04-29T09:18:00.231Z,100.00
2023-04-29T09:25:36.553Z,100.00
2023-04-29T09:33:14.354Z,100.00
2023-04-29T09:40:58.887Z,100.00
2023-04-29T09:48:35.735Z,100.00
2023-04-29T10:04:04.412Z,100.00
2023-04-29T10:11:41.515Z,100.00
2023-04-29T10:19:26.707Z,100.00
2023-04-29T10:27:01.322Z,100.00
2023-04-29T10:34:39.090Z,100.00
2023-04-29T10:42:21.725Z,100.00
2023-04-29T10:50:07.693Z,100.00
2023-04-29T10:57:42.464Z,100.00
2023-04-29T11:05:18.781Z,100.00
2023-04-29T11:21:18.869Z,100.00
2023-04-29T11:28:53.251Z,100.00
2023-04-29T11:36:28.934Z,100.00
2023-04-29T11:44:04.969Z,100.00
2023-04-29T11:51:40.798Z,100.00
2023-04-29T11:59:15.438Z,100.00
2023-04-29T12:06:53.329Z,100.00
2023-04-29T12:22:21.811Z,100.00
2023-04-29T12:45:42.950Z,100.00
2023-04-29T12:53:18.430Z,100.00
2023-04-29T13:08:45.801Z,84.80
2023-04-29T13:16:20.287Z,81.28
2023-04-29T13:31:48.403Z,79.86
2023-04-29T13:47:18.048Z,73.67
2023-04-29T13:55:30.108Z,67.66
2023-04-29T14:10:44.791Z,66.24
2023-04-29T14:18:18.761Z,66.04
2023-04-29T14:25:58.879Z,65.33
2023-04-29T14:41:47.943Z,61.09
2023-04-29T14:57:15.501Z,60.67
2023-04-29T15:04:49.679Z,60.16
2023-04-29T15:44:09.494Z,63.37
2023-04-29T15:51:43.404Z,64.21
2023-04-29T15:59:18.748Z,64.31
2023-04-29T16:06:54.249Z,64.43
2023-04-29T16:14:30.348Z,65.24
2023-04-29T16:22:04.499Z,63.49
2023-04-29T16:29:39.631Z,61.76
2023-04-29T16:52:59.033Z,48.52
2023-04-29T17:00:34.580Z,48.43
2023-04-29T17:08:12.426Z,48.87
2023-04-29T17:15:47.783Z,47.35
2023-04-29T17:23:22.155Z,47.75
2023-04-29T17:31:01.309Z,47.01
2023-04-29T17:38:35.359Z,46.86
2023-04-29T17:46:10.804Z,47.50
2023-04-29T17:53:44.689Z,48.56
2023-04-29T18:17:04.679Z,48.33
2023-04-29T18:24:38.967Z,49.61
2023-04-29T18:32:14.224Z,50.74
2023-04-29T18:39:48.069Z,52.70
2023-04-29T18:47:23.409Z,52.86
2023-04-29T19:02:50.125Z,56.24
2023-04-29T19:10:24.512Z,57.29
2023-04-29T19:18:00.054Z,58.61
2023-04-29T19:25:34.168Z,60.81
2023-04-29T19:33:10.043Z,62.35
2023-04-29T19:40:45.067Z,63.40
2023-04-29T19:48:24.640Z,64.66
2023-04-29T19:55:58.626Z,66.09
2023-04-29T20:03:36.214Z,67.36
2023-04-29T20:11:11.544Z,68.24
2023-04-29T20:18:47.288Z,68.97
2023-04-29T20:26:21.217Z,69.99
2023-04-29T20:33:56.707Z,70.93
2023-04-29T20:41:30.721Z,71.90
2023-04-29T20:49:06.415Z,73.28
2023-04-29T20:56:40.488Z,74.79
2023-04-29T21:04:15.755Z,75.69
2023-04-29T21:11:49.825Z,76.90
2023-04-29T21:19:25.627Z,78.17
2023-04-29T21:27:00.048Z,78.14
2023-04-29T21:34:35.547Z,77.87
2023-04-29T21:42:10.154Z,74.94
2023-04-29T21:49:45.673Z,72.99
2023-04-29T21:57:24.137Z,69.26
2023-04-29T22:05:08.819Z,67.06
2023-04-29T22:12:42.802Z,65.37
2023-04-29T22:20:18.216Z,65.04
2023-04-29T22:27:52.477Z,65.10
2023-04-29T22:35:28.473Z,65.01
2023-04-29T22:43:02.475Z,64.94
2023-04-29T22:50:38.012Z,65.47
2023-04-29T22:58:12.174Z,66.32
2023-04-29T23:05:47.677Z,66.42
2023-04-29T23:13:21.801Z,67.09
2023-04-29T23:28:49.037Z,67.50
2023-04-29T23:36:25.340Z,67.56
2023-04-29T23:44:01.364Z,67.96
2023-04-29T23:51:36.665Z,68.11
2023-04-29T23:59:10.604Z,67.92
